Time;durP1;ratioP1;P1;durP2;ratioP2;P2;SDS_P1;SDS_P2;PMS_P1;PMS_P2;Temp;Humidity;BMP_temperature;BMP_pressure;BME280_temperature;BME280_humidity;BME280_pressure;Samples;Min_cycle;Max_cycle;Signal;HPM_P1;HPM_P2
2022/08/01 00:00:34;;;;;;;37.03;34.95;;;24.10;60.40;;;;;;5033794;28;20475;-79
2022/08/01 00:03:00;;;;;;;36.20;34.33;;;23.90;61.10;;;;;;5050873;28;20080;-79
2022/08/01 00:05:26;;;;;;;39.83;37.65;;;23.70;62.20;;;;;;5050427;28;20804;-78
2022/08/01 00:07:52;;;;;;;48.35;45.75;;;23.70;63.00;;;;;;5034250;28;20036;-79
2022/08/01 00:10:18;;;;;;;40.90;38.70;;;23.70;62.60;;;;;;5050666;28;20039;-79
2022/08/01 00:12:45;;;;;;;44.60;42.10;;;23.70;62.90;;;;;;5033670;28;20033;-79
2022/08/01 00:15:13;;;;;;;53.05;50.42;;;23.70;62.80;;;;;;5049881;28;20036;-79
2022/08/01 00:17:39;;;;;;;54.58;51.88;;;23.60;63.50;;;;;;5034180;28;20399;-79
2022/08/01 00:20:07;;;;;;;45.60;43.33;;;23.40;63.80;;;;;;5033927;28;20427;-79
2022/08/01 00:22:34;;;;;;;49.03;46.60;;;23.40;64.40;;;;;;5034009;28;20033;-78
2022/08/01 00:25:00;;;;;;;43.00;40.78;;;23.30;64.50;;;;;;5034210;28;20514;-79
2022/08/01 00:27:26;;;;;;;46.90;44.50;;;23.30;65.10;;;;;;5050396;28;20391;-78
2022/08/01 00:29:53;;;;;;;47.08;44.72;;;23.10;65.60;;;;;;5033768;28;20352;-79
2022/08/01 00:32:19;;;;;;;41.58;39.22;;;22.90;66.80;;;;;;5016368;28;20045;-78
2022/08/01 00:34:45;;;;;;;35.80;33.85;;;22.90;66.80;;;;;;5032690;28;20049;-78
2022/08/01 00:37:11;;;;;;;39.42;37.33;;;22.80;68.30;;;;;;5033544;28;20828;-79
2022/08/01 00:39:37;;;;;;;34.53;32.63;;;22.80;67.50;;;;;;5036536;28;20026;-78
2022/08/01 00:42:07;;;;;;;31.13;29.50;;;22.70;67.70;;;;;;5030245;28;20029;-78
2022/08/01 00:44:34;;;;;;;26.65;25.27;;;22.70;68.30;;;;;;5042337;28;20379;-79
2022/08/01 00:47:00;;;;;;;32.60;30.67;;;22.80;67.90;;;;;;5049312;28;20495;-78
2022/08/01 00:49:27;;;;;;;28.23;26.52;;;22.80;68.00;;;;;;5033005;28;20036;-78
2022/08/01 00:51:53;;;;;;;26.73;25.13;;;22.70;68.40;;;;;;5033720;28;20398;-79
2022/08/01 00:54:19;;;;;;;29.73;28.08;;;22.60;68.70;;;;;;5033626;28;20032;-78
2022/08/01 00:56:45;;;;;;;33.20;31.35;;;22.50;68.80;;;;;;5049914;28;20471;-78
2022/08/01 00:59:12;;;;;;;28.60;27.02;;;22.50;69.50;;;;;;5016562;28;20048;-78
2022/08/01 01:01:38;;;;;;;33.05;31.10;;;22.50;69.50;;;;;;5032885;28;20073;-78
2022/08/01 01:04:04;;;;;;;36.03;34.00;;;22.50;69.60;;;;;;5015957;28;20399;-78
2022/08/01 01:06:33;;;;;;;38.00;35.90;;;22.30;69.80;;;;;;5049825;28;20048;-79
2022/08/01 01:09:26;;;;;;;35.45;33.33;;;22.30;70.70;;;;;;5051137;28;20029;-79
2022/08/01 01:12:24;;;;;;;39.85;37.58;;;22.20;71.20;;;;;;5049991;28;20025;-78
2022/08/01 01:14:55;;;;;;;40.75;38.00;;;22.20;71.20;;;;;;4992424;28;20044;-78
2022/08/01 01:17:25;;;;;;;43.28;41.08;;;22.30;70.60;;;;;;4992299;28;20045;-78
2022/08/01 01:19:53;;;;;;;38.17;36.17;;;22.20;71.00;;;;;;4991876;28;20042;-79
2022/08/01 01:22:43;;;;;;;39.60;37.30;;;22.20;71.20;;;;;;4992330;28;20042;-78
2022/08/01 01:25:35;;;;;;;45.00;42.80;;;22.30;70.60;;;;;;5009752;28;20496;-79
2022/08/01 01:28:12;;;;;;;44.00;41.60;;;22.40;70.40;;;;;;4996730;28;20046;-78
2022/08/01 01:30:38;;;;;;;40.13;37.95;;;22.40;70.30;;;;;;5012187;28;20052;-78
2022/08/01 01:33:06;;;;;;;39.65;37.55;;;22.30;70.60;;;;;;5012666;28;20038;-79
2022/08/01 01:35:34;;;;;;;40.03;37.92;;;22.20;71.00;;;;;;4982257;28;20046;-78
2022/08/01 01:38:21;;;;;;;40.20;37.90;;;22.20;71.70;;;;;;4977199;28;20414;-79
2022/08/01 01:40:48;;;;;;;39.67;37.35;;;22.10;71.90;;;;;;4996387;28;20374;-78
2022/08/01 01:43:15;;;;;;;40.45;38.30;;;22.20;71.80;;;;;;4996354;28;20730;-78
2022/08/01 01:45:41;;;;;;;42.33;39.85;;;22.10;71.90;;;;;;5008454;28;20046;-79
2022/08/01 01:48:09;;;;;;;41.00;38.80;;;22.10;72.20;;;;;;5008876;28;20050;-79
2022/08/01 01:50:35;;;;;;;42.10;39.90;;;22.00;72.00;;;;;;5017916;28;20030;-79
2022/08/01 01:53:01;;;;;;;42.10;39.65;;;22.10;71.90;;;;;;5033504;28;20033;-79
2022/08/01 01:55:27;;;;;;;43.30;40.88;;;22.10;71.90;;;;;;5033310;28;20037;-79
2022/08/01 01:57:54;;;;;;;43.47;41.13;;;22.10;72.40;;;;;;5033212;28;20468;-78
2022/08/01 02:00:20;;;;;;;44.13;41.67;;;22.10;72.40;;;;;;5032860;28;20033;-79
2022/08/01 02:02:46;;;;;;;42.50;40.00;;;22.20;71.90;;;;;;5032693;28;20029;-78
2022/08/01 02:05:12;;;;;;;43.55;41.25;;;22.20;71.60;;;;;;5033084;28;20395;-78
2022/08/01 02:07:39;;;;;;;42.03;39.45;;;22.30;71.20;;;;;;5016441;28;20092;-79
2022/08/01 02:10:05;;;;;;;43.15;40.75;;;22.10;71.90;;;;;;5016216;28;20030;-79
2022/08/01 02:12:34;;;;;;;42.10;39.80;;;22.00;72.40;;;;;;5033085;28;20036;-79
2022/08/01 02:15:00;;;;;;;44.22;41.80;;;22.20;71.70;;;;;;5016273;28;20044;-78
2022/08/01 02:17:26;;;;;;;45.40;42.88;;;22.00;72.70;;;;;;5015767;28;20057;-79
2022/08/01 02:19:53;;;;;;;44.33;41.53;;;21.90;73.40;;;;;;5032895;28;20034;-78
2022/08/01 02:22:40;;;;;;;42.92;40.63;;;21.90;72.80;;;;;;5032802;28;20029;-79
2022/08/01 02:25:20;;;;;;;43.85;41.35;;;21.80;73.40;;;;;;5032887;28;20049;-78
2022/08/01 02:28:01;;;;;;;40.60;38.40;;;21.80;73.40;;;;;;5032818;28;20037;-78
2022/08/01 02:30:30;;;;;;;42.20;39.88;;;21.80;73.50;;;;;;5031928;28;20487;-79
2022/08/01 02:33:21;;;;;;;43.55;41.20;;;21.80;73.80;;;;;;5032771;28;20041;-78
2022/08/01 02:35:50;;;;;;;41.38;38.97;;;21.60;74.20;;;;;;5032085;28;20041;-79
2022/08/01 02:38:16;;;;;;;38.05;35.92;;;21.70;74.10;;;;;;5035153;28;20056;-79
2022/08/01 02:40:45;;;;;;;39.72;37.60;;;21.80;73.40;;;;;;5035650;28;20393;-78
2022/08/01 02:43:11;;;;;;;42.20;39.90;;;21.90;72.80;;;;;;5051096;28;20029;-78
2022/08/01 02:45:45;;;;;;;41.75;39.60;;;22.00;72.40;;;;;;5003846;28;20060;-79
2022/08/01 02:48:12;;;;;;;42.05;39.65;;;22.10;71.80;;;;;;5032288;28;20040;-78
2022/08/01 02:50:39;;;;;;;43.45;41.25;;;22.20;71.50;;;;;;5015297;28;20045;-78
2022/08/01 02:53:06;;;;;;;44.55;42.15;;;22.40;70.90;;;;;;5032331;28;20033;-79
2022/08/01 02:55:32;;;;;;;43.38;40.78;;;22.20;71.60;;;;;;5032237;28;20024;-78
2022/08/01 02:57:59;;;;;;;43.75;41.53;;;22.10;71.90;;;;;;5032253;28;20097;-78
2022/08/01 03:00:25;;;;;;;42.50;40.08;;;22.10;72.10;;;;;;5014723;28;20034;-78
2022/08/01 03:02:53;;;;;;;46.30;43.70;;;22.10;72.10;;;;;;5032082;28;20487;-78
2022/08/01 03:05:19;;;;;;;43.63;41.30;;;21.80;73.30;;;;;;5015345;28;20041;-79
2022/08/01 03:07:45;;;;;;;41.22;38.80;;;21.70;73.60;;;;;;5032344;28;20041;-79
2022/08/01 03:10:11;;;;;;;41.67;39.08;;;21.80;73.60;;;;;;5032069;28;20030;-78
2022/08/01 03:12:38;;;;;;;41.60;39.22;;;21.80;73.10;;;;;;5031930;28;20040;-79
2022/08/01 03:15:04;;;;;;;43.20;41.00;;;21.90;72.80;;;;;;5031102;28;20026;-79
2022/08/01 03:17:30;;;;;;;42.42;40.08;;;21.80;73.40;;;;;;5031747;28;20048;-78
2022/08/01 03:19:57;;;;;;;41.47;38.95;;;21.80;73.30;;;;;;5015339;28;20117;-78
2022/08/01 03:22:24;;;;;;;40.63;38.45;;;21.80;73.10;;;;;;5031788;28;20045;-78
2022/08/01 03:24:52;;;;;;;43.17;40.80;;;21.90;72.70;;;;;;5015044;28;20052;-78
2022/08/01 03:27:21;;;;;;;40.78;38.50;;;21.80;73.40;;;;;;5014809;28;20396;-78
2022/08/01 03:29:48;;;;;;;44.45;42.15;;;21.90;72.80;;;;;;5031438;28;20388;-79
2022/08/01 03:32:14;;;;;;;41.08;38.78;;;21.90;73.10;;;;;;5014323;28;20037;-79
2022/08/01 03:34:40;;;;;;;40.83;38.58;;;21.80;73.20;;;;;;5038336;28;20044;-78
2022/08/01 03:37:25;;;;;;;41.63;39.22;;;22.00;72.20;;;;;;5034677;28;20041;-79
2022/08/01 03:40:00;;;;;;;41.28;38.90;;;22.10;71.70;;;;;;5053124;28;20045;-78
2022/08/01 03:42:31;;;;;;;43.03;40.28;;;22.20;71.60;;;;;;5051070;28;20036;-79
2022/08/01 03:44:58;;;;;;;;;;;22.00;72.70;;;;;;5051971;28;20021;-78
2022/08/01 03:47:28;;;;;;;39.88;37.67;;;21.90;73.10;;;;;;5049938;28;19920;-78
2022/08/01 03:49:54;;;;;;;40.95;38.65;;;21.80;73.10;;;;;;5035092;28;20024;-79
2022/08/01 03:52:20;;;;;;;40.30;37.97;;;21.90;72.60;;;;;;5034661;28;20033;-78
2022/08/01 03:54:49;;;;;;;43.72;41.35;;;22.10;71.80;;;;;;5034580;28;20029;-78
2022/08/01 03:57:15;;;;;;;44.50;42.10;;;22.10;71.60;;;;;;5017504;28;20032;-79
2022/08/01 03:59:41;;;;;;;42.08;39.78;;;22.10;72.00;;;;;;5017877;28;20045;-78
2022/08/01 04:02:07;;;;;;;42.38;39.72;;;22.10;71.60;;;;;;5033535;28;20396;-79
2022/08/01 04:04:34;;;;;;;44.33;41.72;;;22.10;71.80;;;;;;5017627;28;20041;-78
2022/08/01 04:07:04;;;;;;;43.90;41.45;;;21.90;72.90;;;;;;5034217;28;20041;-78
2022/08/01 04:09:31;;;;;;;43.38;40.72;;;21.70;73.60;;;;;;5034692;28;20029;-78
2022/08/01 04:12:00;;;;;;;42.30;39.90;;;21.70;74.20;;;;;;5050472;28;20025;-78
2022/08/01 04:14:28;;;;;;;43.30;40.67;;;21.60;74.40;;;;;;5017863;28;20059;-78
2022/08/01 04:16:54;;;;;;;45.25;42.75;;;21.60;74.40;;;;;;5033829;28;20040;-78
2022/08/01 04:19:20;;;;;;;44.13;41.83;;;21.60;74.60;;;;;;5015993;28;20037;-78
2022/08/01 04:21:46;;;;;;;44.42;42.05;;;21.60;74.30;;;;;;5033932;28;20021;-79
2022/08/01 04:24:14;;;;;;;43.08;40.83;;;21.60;75.00;;;;;;5033964;28;20033;-78
2022/08/01 04:26:41;;;;;;;45.22;42.83;;;21.60;75.10;;;;;;5033412;28;20033;-79
2022/08/01 04:29:08;;;;;;;44.60;42.03;;;21.50;75.10;;;;;;5034093;28;20033;-79
2022/08/01 04:31:34;;;;;;;45.00;42.58;;;21.40;76.00;;;;;;5033448;28;20036;-79
2022/08/01 04:34:00;;;;;;;41.13;38.92;;;21.20;76.90;;;;;;5032182;28;20451;-79
2022/08/01 04:36:27;;;;;;;42.08;39.67;;;21.20;77.00;;;;;;5013666;28;20045;-78
2022/08/01 04:38:55;;;;;;;41.45;39.08;;;21.20;76.70;;;;;;5037679;28;20459;-78
2022/08/01 04:41:21;;;;;;;49.53;46.92;;;21.20;76.80;;;;;;5049699;28;20035;-79
2022/08/01 04:43:48;;;;;;;49.72;46.85;;;21.20;77.10;;;;;;5044107;28;20399;-78
2022/08/01 04:46:14;;;;;;;47.08;44.25;;;21.00;77.70;;;;;;5044466;28;20048;-78
2022/08/01 04:48:40;;;;;;;45.15;42.60;;;21.00;77.90;;;;;;5049734;28;20037;-78
2022/08/01 04:51:16;;;;;;;46.90;44.30;;;21.10;77.70;;;;;;5050084;28;20028;-79
2022/08/01 04:53:48;;;;;;;49.05;46.33;;;21.10;77.50;;;;;;5049954;28;20024;-78
2022/08/01 04:56:14;;;;;;;45.88;43.42;;;21.00;77.80;;;;;;5049818;28;20054;-79
2022/08/01 04:58:41;;;;;;;45.10;42.60;;;21.00;77.90;;;;;;5049867;28;20084;-79
2022/08/01 05:01:07;;;;;;;42.47;40.17;;;21.00;77.90;;;;;;5032743;28;20033;-79
2022/08/01 05:03:33;;;;;;;41.55;39.15;;;21.00;78.00;;;;;;5049854;28;20460;-79
2022/08/01 05:06:00;;;;;;;57.47;54.38;;;21.00;77.70;;;;;;5049839;28;20032;-78
2022/08/01 05:08:26;;;;;;;42.00;39.67;;;21.10;77.70;;;;;;5049738;28;20068;-78
2022/08/01 05:10:52;;;;;;;45.17;42.40;;;21.00;78.00;;;;;;5049392;28;20391;-78
2022/08/01 05:13:19;;;;;;;44.13;41.50;;;20.90;78.20;;;;;;5050909;28;20036;-78
2022/08/01 05:15:45;;;;;;;54.50;51.67;;;20.80;78.50;;;;;;5032623;28;20032;-78
2022/08/01 05:18:11;;;;;;;48.25;45.55;;;20.80;78.30;;;;;;5049889;28;20024;-78
2022/08/01 05:20:37;;;;;;;44.53;42.22;;;20.80;78.90;;;;;;5050736;28;20029;-78
2022/08/01 05:23:04;;;;;;;44.53;41.83;;;20.70;78.80;;;;;;5049717;28;20036;-78
2022/08/01 05:25:30;;;;;;;58.80;55.65;;;20.80;78.80;;;;;;5032442;28;20033;-78
2022/08/01 05:27:56;;;;;;;41.55;39.15;;;20.70;79.10;;;;;;5032615;28;20057;-78
2022/08/01 05:30:22;;;;;;;40.78;38.55;;;20.70;79.20;;;;;;5032720;28;20036;-79
2022/08/01 05:32:48;;;;;;;39.83;37.63;;;20.80;78.90;;;;;;5049499;28;20036;-78
2022/08/01 05:35:15;;;;;;;41.72;39.22;;;20.90;78.50;;;;;;5049315;28;20029;-78
2022/08/01 05:37:41;;;;;;;41.60;39.20;;;21.00;78.30;;;;;;5032888;28;20052;-79
2022/08/01 05:40:07;;;;;;;38.45;36.38;;;21.00;78.00;;;;;;5032179;28;20041;-78
2022/08/01 05:42:33;;;;;;;36.05;34.15;;;21.00;78.10;;;;;;5049340;28;20036;-78
2022/08/01 05:45:00;;;;;;;36.38;34.38;;;21.10;77.70;;;;;;5020647;28;20076;-79
2022/08/01 05:47:26;;;;;;;36.85;34.67;;;21.30;77.30;;;;;;5048733;28;20052;-79
2022/08/01 05:49:52;;;;;;;40.35;38.17;;;21.50;76.50;;;;;;5050681;28;20029;-79
2022/08/01 05:52:18;;;;;;;36.67;34.78;;;21.40;76.60;;;;;;5050588;28;20407;-79
2022/08/01 05:54:44;;;;;;;36.25;34.22;;;21.30;76.90;;;;;;5050235;28;20032;-79
2022/08/01 05:57:10;;;;;;;39.80;37.53;;;21.30;76.80;;;;;;5050518;28;20021;-78
2022/08/01 05:59:37;;;;;;;36.55;34.55;;;21.20;77.00;;;;;;5049231;28;20040;-78
2022/08/01 06:02:03;;;;;;;36.25;34.35;;;21.10;77.40;;;;;;5032420;28;20029;-78
2022/08/01 06:04:29;;;;;;;38.17;36.08;;;21.30;77.10;;;;;;5032344;28;20380;-78
2022/08/01 06:06:55;;;;;;;41.25;39.00;;;21.20;77.10;;;;;;5032863;28;20040;-78
2022/08/01 06:09:21;;;;;;;37.22;35.22;;;21.20;77.20;;;;;;5031989;28;20392;-79
2022/08/01 06:11:47;;;;;;;36.35;34.25;;;21.20;77.10;;;;;;5052477;28;20032;-79
2022/08/01 06:14:13;;;;;;;36.88;34.97;;;21.30;77.10;;;;;;5036584;28;20037;-79
2022/08/01 06:16:39;;;;;;;39.63;37.50;;;21.30;76.80;;;;;;5035545;28;20037;-78
2022/08/01 06:19:05;;;;;;;40.47;38.33;;;21.40;76.50;;;;;;5053111;28;20029;-78
2022/08/01 06:21:31;;;;;;;39.70;37.40;;;21.40;76.30;;;;;;5035819;28;20037;-79
2022/08/01 06:23:57;;;;;;;40.33;38.03;;;21.40;76.30;;;;;;5052604;28;20024;-79
2022/08/01 06:26:24;;;;;;;40.25;38.05;;;21.50;75.80;;;;;;5052994;28;20036;-79
2022/08/01 06:28:50;;;;;;;37.78;35.78;;;21.50;75.70;;;;;;5052558;28;20041;-79
2022/08/01 06:31:16;;;;;;;38.75;36.70;;;21.50;75.90;;;;;;5051331;28;20033;-79
2022/08/01 06:33:42;;;;;;;37.55;35.55;;;21.50;76.00;;;;;;5052765;28;20032;-79
2022/08/01 06:36:09;;;;;;;37.83;35.60;;;21.50;75.60;;;;;;5032257;28;20085;-79
2022/08/01 06:38:35;;;;;;;35.55;33.45;;;21.60;75.20;;;;;;5004802;28;20399;-78
2022/08/01 06:41:02;;;;;;;36.80;34.90;;;21.60;75.10;;;;;;5052259;28;20028;-78
2022/08/01 06:43:28;;;;;;;35.80;33.67;;;21.60;75.30;;;;;;5052334;28;20026;-79
2022/08/01 06:45:54;;;;;;;36.10;34.10;;;21.70;75.10;;;;;;5052689;28;20033;-79
2022/08/01 06:48:20;;;;;;;38.08;35.88;;;21.70;75.20;;;;;;5052359;28;20402;-79
2022/08/01 06:50:46;;;;;;;36.00;34.00;;;21.70;75.00;;;;;;5035497;28;20037;-79
2022/08/01 06:53:12;;;;;;;38.63;36.60;;;21.70;74.90;;;;;;5051738;28;20365;-79
2022/08/01 06:55:38;;;;;;;37.25;35.13;;;21.70;75.10;;;;;;5035888;28;20081;-79
2022/08/01 06:58:04;;;;;;;35.88;33.95;;;21.60;75.30;;;;;;5035555;28;20056;-79
2022/08/01 07:00:30;;;;;;;37.83;35.65;;;21.70;75.40;;;;;;5035246;28;20029;-79
2022/08/01 07:02:58;;;;;;;36.58;34.60;;;21.80;74.70;;;;;;5035029;28;20040;-79
2022/08/01 07:05:24;;;;;;;33.92;32.13;;;21.80;74.70;;;;;;5051982;28;20029;-78
2022/08/01 07:07:50;;;;;;;33.13;31.23;;;21.80;74.70;;;;;;5034952;28;20041;-79
2022/08/01 07:10:16;;;;;;;31.13;29.33;;;21.90;74.50;;;;;;5035088;28;20112;-79
2022/08/01 07:12:43;;;;;;;31.70;29.95;;;21.90;74.10;;;;;;5035444;28;20384;-79
2022/08/01 07:15:09;;;;;;;30.02;28.33;;;22.00;74.00;;;;;;5034788;28;20036;-79
2022/08/01 07:17:39;;;;;;;31.13;29.25;;;22.00;73.70;;;;;;5035171;28;20056;-79
2022/08/01 07:20:08;;;;;;;30.90;29.20;;;22.00;73.60;;;;;;5034975;28;20021;-79
2022/08/01 07:22:34;;;;;;;30.80;29.17;;;22.00;73.40;;;;;;5034036;28;20029;-79
2022/08/01 07:25:00;;;;;;;32.22;30.52;;;22.20;73.20;;;;;;5035300;28;20376;-79
2022/08/01 07:27:26;;;;;;;31.63;29.73;;;22.20;73.00;;;;;;5035008;28;20563;-79
2022/08/01 07:29:52;;;;;;;32.65;30.90;;;22.20;72.90;;;;;;5051489;28;20037;-79
2022/08/01 07:32:18;;;;;;;33.25;31.42;;;22.20;72.70;;;;;;5051053;28;20048;-79
2022/08/01 07:34:44;;;;;;;34.08;32.28;;;22.20;72.80;;;;;;5014280;28;20038;-79
2022/08/01 07:37:11;;;;;;;37.83;35.78;;;22.30;72.40;;;;;;5031314;28;20033;-79
2022/08/01 07:39:37;;;;;;;36.00;34.10;;;22.40;72.00;;;;;;5044774;28;20397;-79
2022/08/01 07:42:03;;;;;;;37.08;34.92;;;22.30;72.00;;;;;;5051222;28;20025;-79
2022/08/01 07:44:29;;;;;;;40.42;38.22;;;22.40;72.00;;;;;;5039576;28;20034;-78
2022/08/01 07:46:55;;;;;;;40.33;38.22;;;22.50;71.40;;;;;;5051350;28;20048;-79
2022/08/01 07:49:21;;;;;;;39.03;36.92;;;22.70;71.50;;;;;;5034325;28;20504;-79
2022/08/01 07:51:47;;;;;;;40.35;38.15;;;22.80;70.50;;;;;;5051076;28;20392;-79
2022/08/01 07:54:13;;;;;;;41.08;38.88;;;22.90;70.20;;;;;;5051166;28;20036;-79
2022/08/01 07:56:40;;;;;;;41.92;39.63;;;23.10;69.50;;;;;;5050936;28;20033;-79
2022/08/01 07:59:07;;;;;;;43.45;41.22;;;23.20;69.10;;;;;;5050947;28;20049;-79
2022/08/01 08:01:33;;;;;;;43.85;41.63;;;23.30;68.70;;;;;;5050336;28;20025;-79
2022/08/01 08:03:59;;;;;;;41.92;39.67;;;23.50;68.70;;;;;;5050452;28;20033;-79
2022/08/01 08:06:25;;;;;;;44.08;41.88;;;24.00;67.10;;;;;;5034115;28;20391;-79
2022/08/01 08:08:53;;;;;;;46.28;43.92;;;24.20;65.40;;;;;;5050509;28;20041;-79
2022/08/01 08:11:19;;;;;;;49.20;46.75;;;24.10;65.40;;;;;;5050708;28;20024;-79
2022/08/01 08:13:45;;;;;;;48.22;45.72;;;24.20;65.00;;;;;;5050879;28;20040;-79
2022/08/01 08:16:11;;;;;;;47.92;45.53;;;24.20;65.00;;;;;;5050096;28;20387;-79
2022/08/01 08:18:38;;;;;;;49.50;46.65;;;24.10;65.10;;;;;;5050242;28;20040;-79
2022/08/01 08:21:04;;;;;;;46.38;43.88;;;24.10;65.20;;;;;;5050705;28;20021;-79
2022/08/01 08:26:14;;;;;;;46.65;44.10;;;24.10;65.20;;;;;;5057440;28;20032;-79
2022/08/01 08:28:40;;;;;;;44.45;42.15;;;24.10;65.50;;;;;;5050077;28;20045;-79
2022/08/01 08:31:07;;;;;;;46.58;43.97;;;24.20;65.30;;;;;;5049738;28;20033;-79
2022/08/01 08:33:34;;;;;;;48.30;45.60;;;24.40;64.80;;;;;;5049608;28;20483;-79
2022/08/01 08:36:00;;;;;;;49.08;46.55;;;24.30;64.20;;;;;;5033000;28;20048;-79
2022/08/01 08:38:27;;;;;;;50.05;47.35;;;24.20;64.60;;;;;;5033563;28;20369;-79
2022/08/01 08:40:53;;;;;;;46.83;44.33;;;24.10;64.50;;;;;;5033234;28;20045;-79
2022/08/01 08:43:19;;;;;;;51.85;49.25;;;24.20;65.10;;;;;;5047852;28;20059;-79
2022/08/01 08:45:45;;;;;;;50.63;47.63;;;24.40;64.50;;;;;;5002912;28;20041;-79
2022/08/01 08:48:12;;;;;;;49.22;46.53;;;24.70;64.10;;;;;;5029562;28;20041;-79
2022/08/01 08:50:38;;;;;;;46.03;43.63;;;24.90;63.10;;;;;;5030017;28;20433;-79
2022/08/01 08:53:04;;;;;;;45.67;43.00;;;25.10;62.00;;;;;;5029908;28;20486;-79
2022/08/01 08:55:31;;;;;;;43.42;41.13;;;25.10;61.70;;;;;;5013336;28;20029;-79
2022/08/01 08:57:57;;;;;;;42.92;40.80;;;25.20;61.40;;;;;;5030111;28;20498;-79
2022/08/01 09:00:23;;;;;;;43.60;41.33;;;25.20;60.70;;;;;;5029498;28;20422;-79
2022/08/01 09:02:49;;;;;;;46.22;43.83;;;25.10;60.70;;;;;;5029673;28;20122;-79
2022/08/01 09:05:17;;;;;;;45.45;43.05;;;25.10;61.40;;;;;;5012945;28;20491;-78
2022/08/01 09:07:43;;;;;;;44.55;42.15;;;25.30;60.90;;;;;;5013388;28;20033;-79
2022/08/01 09:10:09;;;;;;;39.60;37.40;;;25.50;61.00;;;;;;5012868;28;20041;-79
2022/08/01 09:12:37;;;;;;;39.17;37.03;;;25.70;59.40;;;;;;5029843;28;20483;-79
2022/08/01 09:15:03;;;;;;;47.17;44.67;;;25.90;59.00;;;;;;5012427;28;20399;-80
2022/08/01 09:17:38;;;;;;;43.20;40.85;;;26.10;58.80;;;;;;5029312;28;20021;-79
2022/08/01 09:20:05;;;;;;;48.53;46.13;;;26.20;58.40;;;;;;5029765;28;20037;-79
2022/08/01 09:22:32;;;;;;;50.35;47.58;;;26.10;58.80;;;;;;5013246;28;20040;-79
2022/08/01 09:25:10;;;;;;;45.17;42.78;;;25.90;58.80;;;;;;5029461;28;20037;-79
2022/08/01 09:27:38;;;;;;;42.00;39.75;;;25.60;59.40;;;;;;5029262;28;20388;-79
2022/08/01 09:30:14;;;;;;;42.42;40.05;;;25.50;59.60;;;;;;5012470;28;20109;-79
2022/08/01 09:32:57;;;;;;;44.53;42.03;;;25.40;60.40;;;;;;5012515;28;20435;-79
2022/08/01 09:35:24;;;;;;;41.75;39.55;;;25.40;59.70;;;;;;5042201;28;20025;-77
2022/08/01 09:37:50;;;;;;;42.50;40.30;;;25.50;59.70;;;;;;5049367;28;20037;-78
2022/08/01 09:40:16;;;;;;;39.65;37.30;;;25.60;59.60;;;;;;5013848;28;20045;-79
2022/08/01 09:42:42;;;;;;;42.30;39.80;;;25.60;59.30;;;;;;5029522;28;20451;-79
2022/08/01 09:45:09;;;;;;;37.47;35.45;;;25.50;59.30;;;;;;5025573;28;20033;-80
2022/08/01 09:47:38;;;;;;;39.90;37.70;;;25.40;59.40;;;;;;5016342;28;20037;-78
2022/08/01 09:50:05;;;;;;;42.92;40.30;;;25.30;60.00;;;;;;5016944;28;20044;-78
2022/08/01 09:52:31;;;;;;;42.38;39.88;;;25.40;59.90;;;;;;5016678;28;20037;-79
2022/08/01 09:54:59;;;;;;;39.67;37.58;;;25.70;59.60;;;;;;5016639;28;20056;-79
2022/08/01 09:57:25;;;;;;;39.83;37.72;;;25.70;59.00;;;;;;5016930;28;20475;-79
2022/08/01 09:59:56;;;;;;;33.72;31.73;;;25.80;59.50;;;;;;5016282;28;20048;-79
2022/08/01 10:02:33;;;;;;;34.58;32.67;;;26.00;58.60;;;;;;5016320;28;20044;-79
2022/08/01 10:05:04;;;;;;;36.35;34.17;;;26.20;58.30;;;;;;5016900;28;20049;-79
2022/08/01 10:07:30;;;;;;;33.15;31.08;;;26.10;58.30;;;;;;5016862;28;20045;-79
2022/08/01 10:10:08;;;;;;;36.25;34.05;;;26.00;58.40;;;;;;5016178;28;20117;-79
2022/08/01 10:12:34;;;;;;;39.00;36.70;;;25.90;58.90;;;;;;5017962;28;20041;-79
2022/08/01 10:15:00;;;;;;;37.10;35.10;;;26.00;59.20;;;;;;5016186;28;20476;-79
2022/08/01 10:17:27;;;;;;;34.95;33.05;;;26.10;58.20;;;;;;5015706;28;20034;-79
2022/08/01 10:19:54;;;;;;;35.83;33.83;;;25.90;58.60;;;;;;5016549;28;20033;-79
2022/08/01 10:22:22;;;;;;;35.28;33.30;;;25.90;58.60;;;;;;5000198;28;20049;-79
2022/08/01 10:24:48;;;;;;;36.22;34.00;;;25.90;58.40;;;;;;5016478;28;20376;-79
2022/08/01 10:27:16;;;;;;;36.80;34.70;;;26.10;58.70;;;;;;5016083;28;20052;-79
2022/08/01 10:30:07;;;;;;;37.10;35.10;;;26.40;57.90;;;;;;4999499;28;20049;-79
2022/08/01 10:32:34;;;;;;;34.15;32.25;;;26.50;57.60;;;;;;5031278;28;20033;-79
2022/08/01 10:35:00;;;;;;;33.17;31.45;;;26.80;56.90;;;;;;5025765;28;20384;-79
2022/08/01 10:37:27;;;;;;;34.28;32.45;;;26.80;56.30;;;;;;5053494;28;20364;-79
2022/08/01 10:39:53;;;;;;;36.63;34.72;;;26.90;56.90;;;;;;5019562;28;20041;-79
2022/08/01 10:42:19;;;;;;;34.10;32.30;;;26.80;56.00;;;;;;5032259;28;20033;-79
2022/08/01 10:44:48;;;;;;;33.45;31.25;;;26.70;56.30;;;;;;5029072;28;20036;-79
2022/08/01 10:47:17;;;;;;;32.30;30.55;;;26.60;56.60;;;;;;5035285;28;20048;-79
2022/08/01 10:49:50;;;;;;;33.47;31.45;;;26.40;57.40;;;;;;5035849;28;20049;-79
2022/08/01 10:52:17;;;;;;;37.28;34.92;;;26.30;57.70;;;;;;5035317;28;20043;-79
2022/08/01 10:54:44;;;;;;;35.05;33.25;;;26.30;57.80;;;;;;5051797;28;20040;-79
2022/08/01 10:57:11;;;;;;;37.10;35.00;;;26.40;57.70;;;;;;5034807;28;20044;-79
2022/08/01 10:59:49;;;;;;;33.22;31.42;;;26.50;57.50;;;;;;5034953;28;20044;-79
2022/08/01 11:02:32;;;;;;;35.17;33.28;;;26.50;56.90;;;;;;5051208;28;20033;-79
2022/08/01 11:05:02;;;;;;;32.65;30.95;;;26.50;57.20;;;;;;5051761;28;20475;-79
2022/08/01 11:07:48;;;;;;;33.40;31.58;;;26.50;56.90;;;;;;5051673;28;20025;-79
2022/08/01 11:10:30;;;;;;;31.58;29.83;;;26.50;57.20;;;;;;5051566;28;20040;-79
2022/08/01 11:12:56;;;;;;;31.25;29.45;;;26.40;57.30;;;;;;5051201;28;20036;-79
2022/08/01 11:15:26;;;;;;;31.17;29.38;;;26.30;57.30;;;;;;5034243;28;20396;-79
2022/08/01 11:17:53;;;;;;;32.75;30.85;;;26.20;57.70;;;;;;5035300;28;20041;-79
2022/08/01 11:20:23;;;;;;;34.58;32.58;;;26.20;57.80;;;;;;5034564;28;20029;-79
2022/08/01 11:23:01;;;;;;;33.47;31.60;;;26.30;57.70;;;;;;5051488;28;20056;-79
2022/08/01 11:25:48;;;;;;;33.67;31.75;;;26.40;57.20;;;;;;5051075;28;20510;-79
2022/08/01 11:28:15;;;;;;;34.60;32.75;;;26.50;57.40;;;;;;5051802;28;20044;-79
2022/08/01 11:30:45;;;;;;;36.58;34.47;;;26.50;57.80;;;;;;5050360;28;20017;-79
2022/08/01 11:33:12;;;;;;;32.35;30.75;;;26.70;56.70;;;;;;5051226;28;20029;-79
2022/08/01 11:36:00;;;;;;;34.70;32.88;;;26.70;56.30;;;;;;5051124;28;20021;-79
2022/08/01 11:38:28;;;;;;;32.58;30.88;;;26.70;56.30;;;;;;5053158;28;20402;-79
2022/08/01 11:41:13;;;;;;;36.05;34.15;;;26.70;56.20;;;;;;5034437;28;20040;-79
2022/08/01 11:43:58;;;;;;;34.35;32.45;;;26.70;56.80;;;;;;5033942;28;20515;-79
2022/08/01 11:46:49;;;;;;;34.78;32.88;;;27.00;56.30;;;;;;5051504;28;20052;-79
2022/08/01 11:49:37;;;;;;;34.65;32.80;;;26.90;55.40;;;;;;5051875;28;20036;-79
2022/08/01 11:52:07;;;;;;;34.15;32.35;;;27.00;55.00;;;;;;5051919;28;20033;-80
2022/08/01 11:54:41;;;;;;;32.65;31.00;;;27.20;54.90;;;;;;5050704;28;20032;-79
2022/08/01 11:57:09;;;;;;;31.90;30.20;;;27.20;54.80;;;;;;5050467;28;20509;-79
2022/08/01 11:59:40;;;;;;;34.25;32.35;;;27.40;54.60;;;;;;5034405;28;20380;-79
2022/08/01 12:02:33;;;;;;;34.78;32.95;;;27.30;54.70;;;;;;5034341;28;20040;-79
2022/08/01 12:05:00;;;;;;;33.90;32.03;;;27.30;54.70;;;;;;5046406;28;20029;-79
2022/08/01 12:07:28;;;;;;;34.72;32.72;;;27.40;54.10;;;;;;5050568;28;20025;-79
2022/08/01 12:10:14;;;;;;;37.35;35.25;;;27.40;53.90;;;;;;5033426;28;20511;-79
2022/08/01 12:12:45;;;;;;;39.92;37.03;;;27.30;54.10;;;;;;5018186;28;20047;-79
2022/08/01 12:15:11;;;;;;;33.83;32.08;;;27.40;54.40;;;;;;5017000;28;20047;-80
2022/08/01 12:17:38;;;;;;;39.15;37.00;;;27.60;53.50;;;;;;5033784;28;20033;-79
2022/08/01 12:20:06;;;;;;;34.72;32.53;;;27.90;53.40;;;;;;5050341;28;20031;-79
2022/08/01 12:22:32;;;;;;;32.83;31.10;;;28.20;53.20;;;;;;5033882;28;20387;-80
2022/08/01 12:25:06;;;;;;;35.05;33.17;;;28.40;51.50;;;;;;5033241;28;20033;-80
2022/08/01 12:27:32;;;;;;;34.05;32.35;;;28.50;51.70;;;;;;5033816;28;20032;-79
2022/08/01 12:29:59;;;;;;;31.98;30.05;;;28.50;51.00;;;;;;5050077;28;20395;-79
2022/08/01 12:32:36;;;;;;;30.50;28.95;;;28.50;50.70;;;;;;5032860;28;20029;-79
2022/08/01 12:35:24;;;;;;;28.45;26.95;;;28.20;50.90;;;;;;5040118;28;20051;-79
2022/08/01 12:37:54;;;;;;;29.00;27.10;;;27.90;51.50;;;;;;5016082;28;20472;-79